createdAt,value
2022-09-28T00:02:15.160Z,97152.28
2022-09-28T00:04:41.800Z,97145.66
2022-09-28T00:07:08.317Z,97144.44
2022-09-28T00:09:34.810Z,97139.78
2022-09-28T00:12:01.638Z,97130.19
2022-09-28T00:14:29.478Z,97125.19
2022-09-28T00:16:56.080Z,97120.13
2022-09-28T00:19:22.583Z,97106.94
2022-09-28T00:21:49.108Z,97108.88
2022-09-28T00:24:15.619Z,97103.03
2022-09-28T00:26:45.208Z,97111.22
2022-09-28T00:29:21.209Z,97114.00
2022-09-28T00:31:51.782Z,97103.66
2022-09-28T00:34:18.628Z,97100.59
2022-09-28T00:36:46.521Z,97096.75
2022-09-28T00:39:14.298Z,97093.69
2022-09-28T00:41:41.118Z,97085.13
2022-09-28T00:44:38.816Z,97082.75
2022-09-28T00:47:18.060Z,97086.63
2022-09-28T00:49:49.037Z,97081.63
2022-09-28T00:52:20.134Z,97083.91
2022-09-28T00:54:48.656Z,97084.69
2022-09-28T00:57:15.999Z,97075.78
2022-09-28T00:59:43.087Z,97078.06
2022-09-28T01:02:11.126Z,97073.44
2022-09-28T01:04:38.713Z,97068.00
2022-09-28T01:07:07.887Z,97060.75
2022-09-28T01:09:37.880Z,97060.75
2022-09-28T01:12:04.886Z,97055.69
2022-09-28T01:14:31.444Z,97052.53
2022-09-28T01:17:05.835Z,97050.63
2022-09-28T01:19:48.089Z,97046.28
2022-09-28T01:22:30.631Z,97043.94
2022-09-28T01:25:05.269Z,97043.50
2022-09-28T01:27:37.442Z,97043.88
2022-09-28T01:30:06.797Z,97042.25
2022-09-28T01:32:43.425Z,97037.56
2022-09-28T01:35:15.127Z,97045.25
2022-09-28T01:37:46.936Z,97036.69
2022-09-28T01:40:15.755Z,97035.16
2022-09-28T01:42:46.733Z,97027.81
2022-09-28T01:45:18.675Z,97021.97
2022-09-28T01:47:47.179Z,97013.41
2022-09-28T01:50:17.859Z,97018.06
2022-09-28T01:52:51.052Z,97023.81
2022-09-28T01:55:26.419Z,97009.16
2022-09-28T01:57:59.379Z,97010.25
2022-09-28T02:00:27.456Z,97002.13
2022-09-28T02:02:59.622Z,96999.75
2022-09-28T02:05:30.526Z,96996.28
2022-09-28T02:08:02.539Z,96992.34
2022-09-28T02:10:35.411Z,96989.22
2022-09-28T02:13:09.002Z,96993.06
2022-09-28T02:15:42.400Z,96984.59
2022-09-28T02:18:10.535Z,96980.31
2022-09-28T02:20:40.587Z,96975.28
2022-09-28T02:23:09.390Z,96979.13
2022-09-28T02:25:40.728Z,96968.22
2022-09-28T02:28:11.119Z,96969.81
2022-09-28T02:30:40.610Z,96959.31
2022-09-28T02:33:13.099Z,96963.59
2022-09-28T02:35:41.948Z,96954.28
2022-09-28T02:38:09.927Z,96957.72
2022-09-28T02:40:37.233Z,96944.97
2022-09-28T02:43:13.600Z,96949.94
2022-09-28T02:45:59.035Z,96953.09
2022-09-28T02:48:44.041Z,96945.72
2022-09-28T02:51:22.586Z,96944.59
2022-09-28T02:54:18.618Z,96940.69
2022-09-28T02:56:56.128Z,96933.72
2022-09-28T02:59:42.971Z,96931.78
2022-09-28T03:02:19.615Z,96928.66
2022-09-28T03:04:57.269Z,96923.97
2022-09-28T03:07:29.080Z,96928.22
2022-09-28T03:10:07.425Z,96919.69
2022-09-28T03:12:36.242Z,96921.59
2022-09-28T03:15:09.392Z,96931.66
2022-09-28T03:17:35.909Z,96925.06
2022-09-28T03:20:02.758Z,96923.91
2022-09-28T03:22:29.261Z,96922.69
2022-09-28T03:24:55.764Z,96928.13
2022-09-28T03:27:22.386Z,96918.84
2022-09-28T03:29:48.880Z,96916.84
2022-09-28T03:32:16.830Z,96920.72
2022-09-28T03:34:43.387Z,96921.84
2022-09-28T03:37:09.884Z,96918.75
2022-09-28T03:39:42.192Z,96922.63
2022-09-28T03:44:56.567Z,96912.94
2022-09-28T03:47:24.495Z,96909.88
2022-09-28T03:49:50.960Z,96908.75
2022-09-28T03:52:17.768Z,96911.81
2022-09-28T03:54:48.908Z,96902.53
2022-09-28T03:57:15.900Z,96903.69
2022-09-28T03:59:42.395Z,96905.25
2022-09-28T04:02:08.915Z,96893.97
2022-09-28T04:04:36.812Z,96900.19
2022-09-28T04:07:03.516Z,96901.72
2022-09-28T04:09:30.000Z,96896.72
2022-09-28T04:12:03.798Z,96900.97
2022-09-28T04:14:31.054Z,96897.88
2022-09-28T04:16:57.535Z,96898.63
2022-09-28T04:19:24.037Z,96892.47
2022-09-28T04:21:51.948Z,96901.34
2022-09-28T04:24:18.913Z,96900.59
2022-09-28T04:26:45.560Z,96897.88
2022-09-28T04:29:12.716Z,96901.34
2022-09-28T04:31:41.933Z,96890.50
2022-09-28T04:34:08.874Z,96890.13
2022-09-28T04:36:35.554Z,96899.84
2022-09-28T04:39:03.596Z,96896.34
2022-09-28T04:41:30.119Z,96896.34
2022-09-28T04:43:56.619Z,96889.81
2022-09-28T04:46:23.228Z,96899.50
2022-09-28T04:48:49.803Z,96898.69
2022-09-28T04:51:16.295Z,96892.94
2022-09-28T04:53:42.812Z,96892.88
2022-09-28T04:56:13.464Z,96895.22
2022-09-28T04:58:40.492Z,96902.53
2022-09-28T05:01:08.857Z,96903.69
2022-09-28T05:03:35.712Z,96900.63
2022-09-28T05:06:02.494Z,96905.25
2022-09-28T05:08:29.987Z,96906.75
2022-09-28T05:10:58.202Z,96907.59
2022-09-28T05:13:26.218Z,96915.72
2022-09-28T05:15:58.096Z,96905.25
2022-09-28T05:18:26.249Z,96914.16
2022-09-28T05:20:52.824Z,96920.00
2022-09-28T05:23:19.352Z,96920.00
2022-09-28T05:25:45.999Z,96918.44
2022-09-28T05:28:12.548Z,96919.56
2022-09-28T05:30:40.428Z,96922.28
2022-09-28T05:33:06.963Z,96915.28
2022-09-28T05:35:33.460Z,96926.13
2022-09-28T05:38:03.486Z,96921.50
2022-09-28T05:40:30.130Z,96928.03
2022-09-28T05:42:59.280Z,96923.06
2022-09-28T05:45:31.364Z,96934.66
2022-09-28T05:47:59.292Z,96937.00
2022-09-28T05:50:26.052Z,96933.09
2022-09-28T05:53:02.907Z,96931.16
2022-09-28T05:55:30.066Z,96940.06
2022-09-28T05:57:58.460Z,96941.56
2022-09-28T06:00:25.480Z,96947.84
2022-09-28T06:03:03.434Z,96943.22
2022-09-28T06:05:34.938Z,96949.84
2022-09-28T06:08:02.396Z,96948.66
2022-09-28T06:10:29.287Z,96949.06
2022-09-28T06:12:56.891Z,96947.88
2022-09-28T06:15:25.468Z,96954.06
2022-09-28T06:17:56.370Z,96951.81
2022-09-28T06:20:24.569Z,96946.47
2022-09-28T06:22:51.539Z,96951.53
2022-09-28T06:25:18.143Z,96953.84
2022-09-28T06:27:53.688Z,96957.75
2022-09-28T06:30:20.268Z,96955.91
2022-09-28T06:32:46.900Z,96967.56
2022-09-28T06:35:13.498Z,96965.72
2022-09-28T06:37:44.471Z,96961.13
2022-09-28T06:40:11.021Z,96969.31
2022-09-28T06:42:37.532Z,96972.09
2022-09-28T06:45:04.594Z,96974.84
2022-09-28T06:47:31.093Z,96983.03
2022-09-28T06:49:57.602Z,96980.75
2022-09-28T06:52:24.176Z,96983.06
2022-09-28T06:54:52.337Z,96980.00
2022-09-28T06:57:18.855Z,96977.06
2022-09-28T06:59:46.639Z,96982.22
2022-09-28T07:02:13.806Z,96983.19
2022-09-28T07:04:41.589Z,96987.19
2022-09-28T07:07:08.459Z,96987.78
2022-09-28T07:09:36.942Z,96986.63
2022-09-28T07:12:09.321Z,96992.59
2022-09-28T07:14:47.256Z,96995.75
2022-09-28T07:17:14.874Z,97006.94
2022-09-28T07:19:41.983Z,97011.69
2022-09-28T07:22:08.446Z,97014.09
2022-09-28T07:24:34.965Z,97019.88
2022-09-28T07:27:01.434Z,97009.94
2022-09-28T07:29:29.283Z,97021.63
2022-09-28T07:31:55.783Z,97026.88
2022-09-28T07:34:23.703Z,97028.66
2022-09-28T07:36:50.210Z,97027.38
2022-09-28T07:39:16.695Z,97029.72
2022-09-28T07:41:43.208Z,97038.63
2022-09-28T07:44:09.692Z,97037.50
2022-09-28T07:46:37.607Z,97038.91
2022-09-28T07:49:06.981Z,97043.28
2022-09-28T07:51:36.591Z,97045.59
2022-09-28T07:54:03.185Z,97050.50
2022-09-28T07:56:29.684Z,97050.41
2022-09-28T07:58:56.326Z,97048.91
2022-09-28T08:01:22.851Z,97048.91
2022-09-28T08:03:50.723Z,97050.84
2022-09-28T08:06:17.414Z,97050.41
2022-09-28T08:08:44.844Z,97052.69
2022-09-28T08:11:12.458Z,97055.41
2022-09-28T08:13:39.461Z,97054.44
2022-09-28T08:16:06.599Z,97064.34
2022-09-28T08:18:33.146Z,97066.19
2022-09-28T08:21:01.263Z,97071.28
2022-09-28T08:23:28.161Z,97078.38
2022-09-28T08:25:54.962Z,97079.94
2022-09-28T08:28:22.851Z,97078.56
2022-09-28T08:30:49.874Z,97075.97
2022-09-28T08:33:18.477Z,97078.16
2022-09-28T08:35:45.214Z,97078.38
2022-09-28T08:38:13.155Z,97086.72
2022-09-28T08:40:49.881Z,97086.78
2022-09-28T08:43:29.322Z,97082.22
2022-09-28T08:45:59.229Z,97095.66
2022-09-28T08:48:30.695Z,97085.44
2022-09-28T08:51:02.086Z,97087.94
2022-09-28T08:53:38.787Z,97092.44
2022-09-28T08:56:11.066Z,97095.13
2022-09-28T08:58:41.985Z,97097.72
2022-09-28T09:01:13.005Z,97103.50
2022-09-28T09:03:39.675Z,97098.97
2022-09-28T09:06:18.503Z,97104.84
2022-09-28T09:08:58.780Z,97102.97
2022-09-28T09:11:41.721Z,97111.19
2022-09-28T09:14:35.651Z,97112.34
2022-09-28T09:17:11.532Z,97107.00
2022-09-28T09:19:50.994Z,97121.06
2022-09-28T09:22:21.564Z,97110.84
2022-09-28T09:25:01.163Z,97113.97
2022-09-28T09:27:46.025Z,97113.44
2022-09-28T09:30:19.193Z,97118.63
2022-09-28T09:33:02.107Z,97123.91
2022-09-28T09:36:07.082Z,97123.06
2022-09-28T09:38:47.363Z,97139.22
2022-09-28T09:41:29.021Z,97131.44
2022-09-28T09:44:12.161Z,97127.16
2022-09-28T09:46:46.834Z,97140.88
2022-09-28T09:49:17.930Z,97132.34
2022-09-28T09:51:51.195Z,97132.34
2022-09-28T09:54:23.928Z,97141.31
2022-09-28T09:56:57.612Z,97135.59
2022-09-28T09:59:29.493Z,97139.47
2022-09-28T10:01:56.571Z,97147.81
2022-09-28T10:04:27.199Z,97141.91
2022-09-28T10:06:58.694Z,97147.31
2022-09-28T10:09:30.245Z,97144.22
2022-09-28T10:11:58.218Z,97141.16
2022-09-28T10:14:25.623Z,97139.16
2022-09-28T10:16:55.363Z,97138.66
2022-09-28T10:19:29.507Z,97135.38
2022-09-28T10:21:56.774Z,97144.19
2022-09-28T10:24:29.963Z,97160.16
2022-09-28T10:27:04.514Z,97151.53
2022-09-28T10:29:40.074Z,97154.25
2022-09-28T10:32:18.710Z,97156.44
2022-09-28T10:34:50.126Z,97163.03
2022-09-28T10:37:18.198Z,97156.47
2022-09-28T10:39:49.626Z,97157.94
2022-09-28T10:42:22.601Z,97157.00
2022-09-28T10:44:53.850Z,97167.66
2022-09-28T10:47:23.292Z,97165.19
2022-09-28T10:49:51.987Z,97160.16
2022-09-28T10:52:36.164Z,97163.34
2022-09-28T10:55:22.498Z,97154.13
2022-09-28T10:57:50.386Z,97161.63
2022-09-28T11:00:31.292Z,97168.28
2022-09-28T11:02:58.720Z,97162.00
2022-09-28T11:06:05.906Z,97173.28
2022-09-28T11:08:37.181Z,97169.72
2022-09-28T11:11:07.605Z,97165.16
2022-09-28T11:13:45.515Z,97170.00
2022-09-28T11:16:29.196Z,97161.13
2022-09-28T11:18:56.705Z,97163.81
2022-09-28T11:21:25.979Z,97166.19
2022-09-28T11:24:01.536Z,97163.81
2022-09-28T11:26:35.923Z,97182.63
2022-09-28T11:29:05.574Z,97168.59
2022-09-28T11:31:32.190Z,97165.88
2022-09-28T11:34:06.438Z,97168.31
2022-09-28T11:36:47.739Z,97162.81
2022-09-28T11:39:27.037Z,97169.84
2022-09-28T11:42:01.983Z,97161.72
2022-09-28T11:44:41.985Z,97160.03
2022-09-28T11:47:32.905Z,97170.47
2022-09-28T11:50:04.859Z,97168.25
2022-09-28T11:52:39.499Z,97160.38
2022-09-28T11:55:13.086Z,97176.19
2022-09-28T11:57:45.060Z,97179.19
2022-09-28T12:00:16.102Z,97175.13
2022-09-28T12:02:48.927Z,97184.34
2022-09-28T12:05:22.464Z,97183.16
2022-09-28T12:07:52.946Z,97183.19
2022-09-28T12:10:26.855Z,97185.88
2022-09-28T12:12:59.337Z,97183.94
2022-09-28T12:16:06.871Z,97189.75
2022-09-28T12:18:30.092Z,97185.69
2022-09-28T12:21:09.486Z,97202.31
2022-09-28T12:23:40.524Z,97200.66
2022-09-28T12:26:27.329Z,97200.91
2022-09-28T12:28:58.158Z,97205.84
2022-09-28T12:31:32.287Z,97200.09
2022-09-28T12:33:59.125Z,97194.00
2022-09-28T12:36:37.690Z,97198.06
2022-09-28T12:39:23.983Z,97185.66
2022-09-28T12:42:07.923Z,97186.09
2022-09-28T12:45:01.046Z,97191.50
2022-09-28T12:47:53.256Z,97205.50
2022-09-28T12:50:38.467Z,97199.56
2022-09-28T12:53:26.710Z,97185.53
2022-09-28T12:56:01.533Z,97207.28
2022-09-28T12:58:48.056Z,97206.53
2022-09-28T13:01:35.658Z,97219.00
2022-09-28T13:04:37.887Z,97215.88
2022-09-28T13:07:06.083Z,97212.44
2022-09-28T13:09:46.497Z,97210.16
2022-09-28T13:12:31.604Z,97207.34
2022-09-28T13:15:22.889Z,97205.00
2022-09-28T13:17:58.405Z,97201.72
2022-09-28T13:20:33.192Z,97205.13
2022-09-28T13:23:11.231Z,97197.69
2022-09-28T13:25:43.585Z,97209.38
2022-09-28T13:28:13.864Z,97208.44
2022-09-28T13:30:41.470Z,97212.59
2022-09-28T13:33:14.771Z,97211.06
2022-09-28T13:35:44.054Z,97206.19
2022-09-28T13:38:53.123Z,97204.78
2022-09-28T13:41:30.505Z,97199.13
2022-09-28T13:44:28.189Z,97207.72
2022-09-28T13:47:08.174Z,97223.34
2022-09-28T13:49:48.551Z,97208.41
2022-09-28T13:52:33.787Z,97209.78
2022-09-28T13:55:14.250Z,97222.75
2022-09-28T13:57:47.208Z,97208.22
2022-09-28T14:00:20.410Z,97216.81
2022-09-28T14:02:48.697Z,97218.31
2022-09-28T14:05:46.285Z,97215.88
2022-09-28T14:08:32.349Z,97215.63
2022-09-28T14:11:40.011Z,97215.31
2022-09-28T14:14:25.662Z,97224.00
2022-09-28T14:17:19.430Z,97226.03
2022-09-28T14:19:50.491Z,97229.31
2022-09-28T14:22:23.451Z,97229.91
2022-09-28T14:25:02.906Z,97238.09
2022-09-28T14:27:44.446Z,97237.38
2022-09-28T14:30:23.098Z,97234.91
2022-09-28T14:32:54.996Z,97227.47
2022-09-28T14:35:28.795Z,97235.00
2022-09-28T14:38:00.099Z,97238.56
2022-09-28T14:40:31.507Z,97251.84
2022-09-28T14:43:21.464Z,97240.91
2022-09-28T14:45:48.080Z,97234.59
2022-09-28T14:48:19.499Z,97236.56
2022-09-28T14:50:46.583Z,97254.19
2022-09-28T14:53:18.479Z,97243.66
2022-09-28T14:55:48.732Z,97238.94
2022-09-28T14:58:19.413Z,97249.41
2022-09-28T15:00:47.599Z,97243.09
2022-09-28T15:03:14.662Z,97250.09
2022-09-28T15:05:44.157Z,97244.69
2022-09-28T15:08:11.641Z,97247.34
2022-09-28T15:10:44.512Z,97248.91
2022-09-28T15:13:20.845Z,97236.09
2022-09-28T15:15:50.734Z,97238.47
2022-09-28T15:18:40.900Z,97243.03
2022-09-28T15:21:07.763Z,97247.00
2022-09-28T15:23:36.222Z,97254.47
2022-09-28T15:26:03.913Z,97247.91
2022-09-28T15:28:34.378Z,97255.69
2022-09-28T15:31:01.826Z,97253.78
2022-09-28T15:33:30.400Z,97258.47
2022-09-28T15:36:00.098Z,97250.91
2022-09-28T15:38:27.021Z,97260.22
2022-09-28T15:40:54.483Z,97259.50
2022-09-28T15:43:24.861Z,97261.59
2022-09-28T15:45:58.900Z,97265.91
2022-09-28T15:48:30.036Z,97270.56
2022-09-28T15:51:05.413Z,97277.56
2022-09-28T15:53:33.049Z,97281.69
2022-09-28T15:56:04.035Z,97292.88
2022-09-28T15:58:30.532Z,97291.19
2022-09-28T16:01:21.854Z,97289.63
2022-09-28T16:03:48.485Z,97296.16
2022-09-28T16:06:15.057Z,97296.16
2022-09-28T16:08:43.095Z,97303.09
2022-09-28T16:11:15.361Z,97300.38
2022-09-28T16:13:46.873Z,97298.03
2022-09-28T16:16:16.234Z,97307.50
2022-09-28T16:18:48.824Z,97308.09
2022-09-28T16:21:27.834Z,97298.91
2022-09-28T16:23:55.147Z,97307.47
2022-09-28T16:26:29.851Z,97312.47
2022-09-28T16:28:56.644Z,97310.03
2022-09-28T16:31:29.337Z,97313.03
2022-09-28T16:33:59.135Z,97317.22
2022-09-28T16:36:28.335Z,97320.56
2022-09-28T16:38:55.071Z,97327.13
2022-09-28T16:41:25.124Z,97322.25
2022-09-28T16:43:57.138Z,97327.25
2022-09-28T16:46:31.308Z,97324.31
2022-09-28T16:48:59.474Z,97326.91
2022-09-28T16:51:26.032Z,97332.56
2022-09-28T16:53:52.571Z,97332.06
2022-09-28T16:56:19.248Z,97334.66
2022-09-28T16:58:45.743Z,97328.72
2022-09-28T17:01:12.674Z,97332.88
2022-09-28T17:03:39.307Z,97336.63
2022-09-28T17:06:12.372Z,97345.44
2022-09-28T17:08:39.044Z,97336.41
2022-09-28T17:11:20.155Z,97346.84
2022-09-28T17:13:50.139Z,97347.19
2022-09-28T17:16:18.403Z,97351.84
2022-09-28T17:18:45.313Z,97357.66
2022-09-28T17:21:15.274Z,97355.69
2022-09-28T17:23:41.833Z,97350.19
2022-09-28T17:26:17.138Z,97360.31
2022-09-28T17:28:43.783Z,97365.41
2022-09-28T17:31:13.863Z,97367.34
2022-09-28T17:33:40.425Z,97370.00
2022-09-28T17:36:12.924Z,97374.63
2022-09-28T17:38:40.849Z,97369.19
2022-09-28T17:41:10.016Z,97380.41
2022-09-28T17:43:36.583Z,97381.91
2022-09-28T17:46:03.599Z,97383.75
2022-09-28T17:48:30.149Z,97393.44
2022-09-28T17:50:56.652Z,97387.59
2022-09-28T17:53:23.179Z,97392.59
2022-09-28T17:55:51.004Z,97399.13
2022-09-28T17:58:19.303Z,97403.28
2022-09-28T18:00:47.088Z,97407.47
2022-09-28T18:03:16.068Z,97405.81
2022-09-28T18:05:43.452Z,97399.91
2022-09-28T18:08:13.220Z,97407.28
2022-09-28T18:10:39.859Z,97406.28
2022-09-28T18:13:08.258Z,97407.03
2022-09-28T18:15:35.182Z,97408.69
2022-09-28T18:18:01.823Z,97402.47
2022-09-28T18:20:28.369Z,97405.16
2022-09-28T18:22:54.973Z,97413.13
2022-09-28T18:25:21.613Z,97407.22
2022-09-28T18:27:48.276Z,97411.03
2022-09-28T18:30:16.194Z,97423.72
2022-09-28T18:32:42.721Z,97414.09
2022-09-28T18:35:09.997Z,97419.53
2022-09-28T18:37:37.200Z,97418.38
2022-09-28T18:40:04.723Z,97422.63
2022-09-28T18:42:31.247Z,97416.44
2022-09-28T18:44:57.847Z,97417.50
2022-09-28T18:47:26.093Z,97426.44
2022-09-28T18:49:52.721Z,97417.94
2022-09-28T18:52:19.246Z,97418.31
2022-09-28T18:54:45.784Z,97428.00
2022-09-28T18:57:12.458Z,97434.94
2022-09-28T18:59:39.015Z,97446.66
2022-09-28T19:02:05.609Z,97441.94
2022-09-28T19:04:33.619Z,97439.13
2022-09-28T19:07:00.120Z,97442.63
2022-09-28T19:09:26.845Z,97439.09
2022-09-28T19:11:53.560Z,97438.72
2022-09-28T19:14:20.279Z,97438.22
2022-09-28T19:16:46.793Z,97440.13
2022-09-28T19:19:15.016Z,97435.06
2022-09-28T19:21:43.228Z,97438.84
2022-09-28T19:24:13.201Z,97446.81
2022-09-28T19:26:40.201Z,97441.75
2022-09-28T19:29:06.755Z,97450.59
2022-09-28T19:31:33.289Z,97451.38
2022-09-28T19:33:59.949Z,97451.31
2022-09-28T19:36:27.281Z,97459.81
2022-09-28T19:38:56.479Z,97459.00
2022-09-28T19:41:25.190Z,97454.63
2022-09-28T19:43:51.673Z,97454.22
2022-09-28T19:46:18.269Z,97458.50
2022-09-28T19:48:44.846Z,97459.13
2022-09-28T19:51:11.370Z,97454.34
2022-09-28T19:53:37.869Z,97454.97
2022-09-28T19:56:06.009Z,97452.47
2022-09-28T19:58:34.799Z,97454.56
2022-09-28T20:01:05.428Z,97454.66
2022-09-28T20:03:31.977Z,97454.41
2022-09-28T20:05:59.041Z,97463.84
2022-09-28T20:08:25.813Z,97460.19
2022-09-28T20:10:54.110Z,97462.72
2022-09-28T20:13:23.212Z,97465.25
2022-09-28T20:15:49.825Z,97464.53
2022-09-28T20:18:16.460Z,97457.03
2022-09-28T20:20:43.007Z,97461.88
2022-09-28T20:23:09.609Z,97455.06
2022-09-28T20:25:36.342Z,97456.72
2022-09-28T20:28:02.891Z,97465.84
2022-09-28T20:30:30.988Z,97467.25
2022-09-28T20:32:57.718Z,97463.91
2022-09-28T20:35:32.716Z,97466.03
2022-09-28T20:37:59.856Z,97469.34
2022-09-28T20:40:26.560Z,97469.69
2022-09-28T20:42:53.108Z,97464.59
2022-09-28T20:45:19.634Z,97470.94
2022-09-28T20:47:47.519Z,97473.91
2022-09-28T20:50:14.116Z,97480.22
2022-09-28T20:52:40.648Z,97486.19
2022-09-28T20:55:08.090Z,97483.75
2022-09-28T20:57:34.703Z,97487.25
2022-09-28T21:00:01.477Z,97495.25
2022-09-28T21:02:28.057Z,97489.25
2022-09-28T21:04:55.954Z,97491.06
2022-09-28T21:07:22.502Z,97498.16
2022-09-28T21:09:49.027Z,97495.66
2022-09-28T21:12:15.600Z,97491.97
2022-09-28T21:14:42.145Z,97498.81
2022-09-28T21:17:08.650Z,97491.72
2022-09-28T21:19:35.286Z,97493.19
2022-09-28T21:22:03.198Z,97493.44
2022-09-28T21:24:29.829Z,97495.22
2022-09-28T21:26:56.354Z,97492.97
2022-09-28T21:29:23.005Z,97498.69
2022-09-28T21:31:50.068Z,97497.13
2022-09-28T21:34:18.628Z,97501.25
2022-09-28T21:36:46.227Z,97507.78
2022-09-28T21:39:14.632Z,97508.56
2022-09-28T21:41:41.563Z,97501.97
2022-09-28T21:44:08.269Z,97505.44
2022-09-28T21:46:35.069Z,97507.47
2022-09-28T21:49:02.531Z,97514.44
2022-09-28T21:51:29.739Z,97509.94
2022-09-28T21:53:56.291Z,97504.22
2022-09-28T21:56:24.323Z,97513.66
2022-09-28T21:58:51.027Z,97514.78
2022-09-28T22:01:19.978Z,97517.38
2022-09-28T22:03:48.817Z,97515.59
2022-09-28T22:06:16.772Z,97516.47
2022-09-28T22:08:43.347Z,97506.69
2022-09-28T22:11:12.412Z,97508.38
2022-09-28T22:16:18.484Z,97509.63
2022-09-28T22:18:45.376Z,97512.91
2022-09-28T22:21:15.021Z,97509.53
2022-09-28T22:23:41.608Z,97509.88
2022-09-28T22:26:11.108Z,97514.16
2022-09-28T22:28:38.550Z,97512.66
2022-09-28T22:31:05.659Z,97510.44
2022-09-28T22:33:33.655Z,97517.53
2022-09-28T22:36:00.193Z,97513.25
2022-09-28T22:38:26.835Z,97511.75
2022-09-28T22:40:54.489Z,97516.50
2022-09-28T22:43:22.134Z,97521.13
2022-09-28T22:45:48.744Z,97518.53
2022-09-28T22:48:15.719Z,97523.59
2022-09-28T22:50:50.164Z,97522.56
2022-09-28T22:53:16.869Z,97515.59
2022-09-28T22:55:43.855Z,97516.03
2022-09-28T22:58:10.536Z,97517.84
2022-09-28T23:00:37.844Z,97511.66
2022-09-28T23:03:04.630Z,97520.53
2022-09-28T23:05:31.187Z,97522.13
2022-09-28T23:07:59.017Z,97517.94
2022-09-28T23:10:25.713Z,97518.28
2022-09-28T23:12:53.109Z,97515.13
2022-09-28T23:15:19.720Z,97508.19
2022-09-28T23:17:50.175Z,97518.53
2022-09-28T23:20:16.900Z,97518.41
2022-09-28T23:22:46.150Z,97518.31
2022-09-28T23:25:14.765Z,97513.13
2022-09-28T23:27:44.726Z,97512.09
2022-09-28T23:30:11.704Z,97516.59
2022-09-28T23:32:38.188Z,97514.47
2022-09-28T23:35:05.648Z,97522.81
2022-09-28T23:37:32.310Z,97516.81
2022-09-28T23:39:58.796Z,97511.53
2022-09-28T23:42:26.696Z,97514.00
2022-09-28T23:44:53.168Z,97513.44
2022-09-28T23:47:19.810Z,97508.25
2022-09-28T23:49:46.343Z,97510.84
2022-09-28T23:52:12.934Z,97507.09
2022-09-28T23:54:39.435Z,97513.84
2022-09-28T23:57:06.041Z,97506.41
2022-09-28T23:59:33.881Z,97513.94
